Time;durP1;ratioP1;P1;durP2;ratioP2;P2;SDS_P1;SDS_P2;PMS_P1;PMS_P2;Temp;Humidity;BMP_temperature;BMP_pressure;BME280_temperature;BME280_humidity;BME280_pressure;Samples;Min_cycle;Max_cycle;Signal;HPM_P1;HPM_P2
2023/11/29 00:01:19;;;;;;;5.53;4.70;;;;;;;2.09;76.59;94322.84;5052866;28;20197;-87
2023/11/29 00:03:45;;;;;;;5.53;5.03;;;;;;;2.16;76.63;94328.06;5053315;28;20212;-87
2023/11/29 00:06:13;;;;;;;5.30;4.80;;;;;;;2.15;76.44;94331.56;5053493;28;20198;-88
2023/11/29 00:08:40;;;;;;;5.70;5.10;;;;;;;2.15;76.51;94331.56;5034926;28;20767;-87
2023/11/29 00:11:06;;;;;;;6.03;5.43;;;;;;;2.17;76.46;94319.50;5047365;28;20601;-86
2023/11/29 00:13:33;;;;;;;5.43;4.80;;;;;;;2.22;76.70;94337.63;5053361;28;20209;-86
2023/11/29 00:15:59;;;;;;;5.47;4.97;;;;;;;2.10;76.38;94310.94;5053328;28;20201;-86
2023/11/29 00:18:26;;;;;;;6.10;5.50;;;;;;;2.12;76.34;94322.50;5052044;28;20256;-86
2023/11/29 00:20:52;;;;;;;6.10;5.50;;;;;;;2.06;76.25;94318.06;5053793;28;20585;-87
2023/11/29 00:23:20;;;;;;;6.00;5.40;;;;;;;1.98;76.90;94333.28;5051976;28;20194;-86
2023/11/29 00:25:46;;;;;;;6.27;5.17;;;;;;;1.96;77.05;94343.56;5054107;28;20202;-86
2023/11/29 00:28:16;;;;;;;5.77;5.17;;;;;;;2.05;77.07;94347.75;5052813;28;20559;-87
2023/11/29 00:30:45;;;;;;;5.73;5.10;;;;;;;2.14;77.07;94338.38;5053840;28;20297;-87
2023/11/29 00:33:11;;;;;;;5.80;5.20;;;;;;;2.16;76.46;94321.25;5053255;28;20224;-86
2023/11/29 00:35:38;;;;;;;5.73;5.23;;;;;;;2.24;75.88;94300.16;5052359;28;20213;-86
2023/11/29 00:38:04;;;;;;;5.53;4.97;;;;;;;2.23;75.63;94298.56;5051190;28;20229;-86
2023/11/29 00:40:32;;;;;;;6.20;5.60;;;;;;;2.25;75.52;94286.53;5052026;28;20236;-86
2023/11/29 00:42:59;;;;;;;7.00;5.57;;;;;;;2.19;74.96;94274.44;5051888;28;20672;-87
2023/11/29 00:45:25;;;;;;;6.13;5.43;;;;;;;2.15;75.87;94296.81;5050358;28;20564;-86
2023/11/29 00:47:52;;;;;;;7.13;5.80;;;;;;;2.22;75.88;94312.22;5051373;28;20212;-86
2023/11/29 00:50:18;;;;;;;6.30;5.70;;;;;;;2.20;75.97;94314.91;5051053;28;20229;-86
2023/11/29 00:52:45;;;;;;;6.77;6.03;;;;;;;2.25;75.22;94302.56;5051806;28;20213;-86
2023/11/29 00:55:14;;;;;;;6.60;5.97;;;;;;;2.28;75.87;94309.06;5051781;28;20206;-86
2023/11/29 00:57:41;;;;;;;6.43;5.47;;;;;;;2.27;76.28;94338.75;5051062;28;20190;-86
2023/11/29 01:00:09;;;;;;;6.43;5.73;;;;;;;2.30;76.04;94319.88;5051255;28;20229;-86
2023/11/29 01:02:36;;;;;;;6.40;5.80;;;;;;;2.33;75.23;94306.81;5048804;28;20210;-86
2023/11/29 01:05:02;;;;;;;6.43;5.83;;;;;;;2.35;74.73;94282.06;5045541;28;20194;-87
2023/11/29 01:07:29;;;;;;;6.93;6.10;;;;;;;2.37;75.21;94303.03;5049459;28;20202;-86
2023/11/29 01:09:55;;;;;;;7.00;6.17;;;;;;;2.39;75.25;94296.03;5051237;28;20225;-87
2023/11/29 01:12:22;;;;;;;6.20;5.60;;;;;;;2.37;74.99;94285.25;5050917;28;20198;-85
2023/11/29 01:14:49;;;;;;;6.60;5.73;;;;;;;2.32;74.14;94259.53;5050908;28;20216;-86
2023/11/29 01:17:16;;;;;;;6.73;6.03;;;;;;;2.38;74.87;94279.22;5050837;28;20202;-85
2023/11/29 01:19:42;;;;;;;6.90;6.20;;;;;;;2.30;74.87;94287.66;5050399;28;20221;-86
2023/11/29 01:22:09;;;;;;;6.73;6.03;;;;;;;2.35;75.14;94304.94;5049374;28;20202;-86
2023/11/29 01:24:35;;;;;;;7.00;6.30;;;;;;;2.35;75.45;94315.09;5050952;28;20585;-87
2023/11/29 01:27:02;;;;;;;7.33;6.50;;;;;;;2.29;76.68;94364.78;5051339;28;20205;-87
2023/11/29 01:29:28;;;;;;;7.73;6.90;;;;;;;2.23;77.04;94382.38;5050559;28;20221;-86
2023/11/29 01:31:56;;;;;;;7.10;6.40;;;;;;;2.27;76.25;94359.06;5050665;28;20210;-86
2023/11/29 01:34:22;;;;;;;6.73;6.10;;;;;;;2.32;75.82;94336.50;5050602;28;20206;-86
2023/11/29 01:36:49;;;;;;;6.97;6.27;;;;;;;2.29;76.79;94361.44;5050538;28;20205;-87
2023/11/29 01:39:15;;;;;;;6.73;6.03;;;;;;;2.19;76.76;94351.41;5049601;28;20599;-86
2023/11/29 01:41:42;;;;;;;7.33;6.63;;;;;;;2.16;77.38;94364.41;5050322;28;20209;-86
2023/11/29 01:44:08;;;;;;;6.63;5.97;;;;;;;2.25;77.74;94376.19;5049908;28;20201;-87
2023/11/29 01:46:35;;;;;;;7.90;6.50;;;;;;;2.30;78.09;94386.69;5049447;28;20206;-87
2023/11/29 01:49:04;;;;;;;7.10;6.20;;;;;;;2.19;77.64;94369.19;5050073;28;20221;-86
2023/11/29 01:51:31;;;;;;;7.10;6.40;;;;;;;2.24;77.24;94361.09;5050433;28;20212;-86
2023/11/29 01:54:02;;;;;;;7.43;6.37;;;;;;;2.21;76.62;94328.41;5048641;28;20208;-87
2023/11/29 01:56:29;;;;;;;7.00;6.30;;;;;;;2.21;76.52;94320.78;5050121;28;20267;-86
2023/11/29 01:59:07;;;;;;;7.37;6.67;;;;;;;2.24;76.84;94321.28;5044913;28;20221;-86
2023/11/29 02:01:34;;;;;;;7.43;6.50;;;;;;;2.25;76.18;94304.31;5049960;28;20205;-87
2023/11/29 02:04:00;;;;;;;7.03;6.30;;;;;;;2.20;76.29;94314.13;5050032;28;20201;-86
2023/11/29 02:06:28;;;;;;;7.60;6.43;;;;;;;2.19;75.56;94274.44;5049510;28;20420;-86
2023/11/29 02:08:54;;;;;;;7.73;6.93;;;;;;;2.23;75.55;94283.34;5049473;28;20221;-86
2023/11/29 02:11:24;;;;;;;7.70;6.90;;;;;;;2.15;75.93;94279.03;5049434;28;20209;-86
2023/11/29 02:13:50;;;;;;;8.47;7.10;;;;;;;2.13;76.17;94295.38;5049992;28;20259;-85
2023/11/29 02:16:17;;;;;;;7.87;7.07;;;;;;;2.17;76.36;94312.69;5050167;28;20201;-85
2023/11/29 02:18:43;;;;;;;7.83;7.03;;;;;;;2.20;76.41;94307.31;5050125;28;20221;-87
2023/11/29 02:21:10;;;;;;;8.13;7.33;;;;;;;2.22;76.09;94310.47;5050805;28;20201;-86
2023/11/29 02:24:02;;;;;;;7.57;6.77;;;;;;;2.24;75.81;94290.81;5051315;28;20204;-87
2023/11/29 02:26:55;;;;;;;7.30;6.60;;;;;;;2.28;75.05;94270.97;5050165;28;20247;-87
2023/11/29 02:29:50;;;;;;;7.77;6.97;;;;;;;2.31;75.06;94271.44;5050209;28;20232;-86
2023/11/29 02:32:16;;;;;;;8.03;7.00;;;;;;;2.36;75.03;94276.03;5040025;28;20296;-86
2023/11/29 02:34:47;;;;;;;8.90;7.00;;;;;;;2.32;75.24;94269.69;5049180;28;20201;-87
2023/11/29 02:37:14;;;;;;;10.00;7.20;;;;;;;2.29;75.12;94262.41;5049433;28;20292;-86
2023/11/29 02:39:40;;;;;;;8.80;7.23;;;;;;;2.26;74.68;94255.91;5049284;28;20238;-87
2023/11/29 02:42:08;;;;;;;8.07;7.27;;;;;;;2.19;74.03;94236.38;5048547;28;20260;-86
2023/11/29 02:44:34;;;;;;;7.87;7.07;;;;;;;2.22;74.66;94246.22;5049124;28;20304;-86
2023/11/29 02:47:01;;;;;;;8.10;7.30;;;;;;;2.25;74.30;94236.53;5048185;28;20603;-86
2023/11/29 02:49:27;;;;;;;8.60;7.70;;;;;;;2.28;74.54;94248.91;5048965;28;20226;-87
2023/11/29 02:51:54;;;;;;;8.00;7.20;;;;;;;2.27;74.77;94259.22;5049698;28;20212;-86
2023/11/29 02:54:20;;;;;;;9.17;7.73;;;;;;;2.24;75.50;94272.25;5048970;28;20202;-86
2023/11/29 02:56:46;;;;;;;8.13;7.33;;;;;;;2.20;75.80;94298.88;5041067;28;20193;-87
2023/11/29 02:59:14;;;;;;;8.27;7.33;;;;;;;2.20;75.94;94304.75;5047489;28;20596;-86
2023/11/29 03:01:41;;;;;;;8.27;7.40;;;;;;;2.21;76.30;94311.44;5041060;28;20205;-87
2023/11/29 03:04:07;;;;;;;8.33;7.37;;;;;;;2.18;76.52;94321.91;5048824;28;20201;-86
2023/11/29 03:06:33;;;;;;;8.73;7.57;;;;;;;2.23;76.40;94318.88;5049552;28;20205;-87
2023/11/29 03:09:00;;;;;;;8.73;7.83;;;;;;;2.23;76.36;94327.31;5049184;28;20224;-87
2023/11/29 03:11:26;;;;;;;9.07;7.17;;;;;;;2.25;76.67;94322.06;5049641;28;20201;-86
2023/11/29 03:13:53;;;;;;;9.33;7.70;;;;;;;2.12;77.82;94365.66;5050528;28;20205;-86
2023/11/29 03:16:21;;;;;;;8.13;7.33;;;;;;;2.11;78.17;94376.78;5046515;28;20738;-86
2023/11/29 03:18:47;;;;;;;8.03;7.23;;;;;;;2.22;77.62;94373.16;5049198;28;20226;-86
2023/11/29 03:21:14;;;;;;;9.20;7.73;;;;;;;2.24;78.04;94373.81;5049414;28;20205;-86
2023/11/29 03:23:40;;;;;;;8.87;7.87;;;;;;;2.20;78.39;94386.00;5049236;28;20213;-87
2023/11/29 03:26:07;;;;;;;9.47;7.90;;;;;;;2.06;77.78;94361.22;5050789;28;20205;-86
2023/11/29 03:28:34;;;;;;;8.93;7.90;;;;;;;2.08;78.29;94367.75;5051756;28;20205;-86
2023/11/29 03:31:00;;;;;;;9.50;8.37;;;;;;;2.11;78.38;94376.00;5048712;28;20220;-86
2023/11/29 03:33:28;;;;;;;10.23;8.50;;;;;;;2.11;78.04;94370.94;5051616;28;20210;-87
2023/11/29 03:35:54;;;;;;;9.40;8.27;;;;;;;2.09;77.34;94355.84;5051048;28;20685;-87
2023/11/29 03:38:21;;;;;;;11.47;8.97;;;;;;;2.12;77.55;94352.97;5049085;28;20206;-86
2023/11/29 03:40:47;;;;;;;9.83;8.60;;;;;;;2.16;77.90;94369.50;5049405;28;20844;-87
2023/11/29 03:43:13;;;;;;;9.50;8.37;;;;;;;2.15;77.56;94367.09;5049030;28;20201;-87
2023/11/29 03:45:41;;;;;;;9.90;8.57;;;;;;;2.15;77.71;94357.75;5048493;28;20208;-86
2023/11/29 03:48:07;;;;;;;10.63;8.90;;;;;;;2.10;78.24;94376.94;5048371;28;20212;-86
2023/11/29 03:50:35;;;;;;;10.13;8.63;;;;;;;2.08;78.17;94375.34;5048649;28;20225;-86
2023/11/29 03:53:01;;;;;;;10.87;9.37;;;;;;;2.11;78.48;94386.16;5041002;28;20201;-87
2023/11/29 03:55:28;;;;;;;9.67;8.40;;;;;;;2.15;78.95;94397.56;5048102;28;20232;-86
2023/11/29 03:57:54;;;;;;;10.67;9.23;;;;;;;2.15;78.74;94395.81;5050887;28;20224;-87
2023/11/29 04:00:21;;;;;;;8.80;7.90;;;;;;;2.14;79.05;94391.69;5052393;28;20256;-86
2023/11/29 04:02:47;;;;;;;10.50;9.17;;;;;;;2.12;78.53;94385.97;5052078;28;20209;-86
2023/11/29 04:05:14;;;;;;;10.00;9.00;;;;;;;2.09;78.62;94373.63;5038783;28;21004;-86
2023/11/29 04:07:42;;;;;;;10.77;9.47;;;;;;;2.12;78.49;94377.59;5052441;28;20190;-87
2023/11/29 04:10:09;;;;;;;10.40;8.70;;;;;;;2.12;78.66;94375.06;5052633;28;20320;-87
2023/11/29 04:12:35;;;;;;;10.40;9.27;;;;;;;2.08;78.58;94380.44;5052129;28;20201;-86
2023/11/29 04:15:01;;;;;;;10.90;9.23;;;;;;;2.11;78.67;94374.25;5052106;28;20217;-87
2023/11/29 04:17:28;;;;;;;10.97;9.33;;;;;;;2.12;78.22;94370.75;5051836;28;20201;-86
2023/11/29 04:19:57;;;;;;;10.30;8.83;;;;;;;2.06;78.00;94362.03;5051679;28;20225;-87
2023/11/29 04:22:24;;;;;;;10.10;8.80;;;;;;;2.13;78.39;94364.72;5051861;28;20209;-87
2023/11/29 04:24:51;;;;;;;11.00;9.67;;;;;;;2.14;77.89;94365.50;5052255;28;20208;-86
2023/11/29 04:27:18;;;;;;;10.13;8.90;;;;;;;2.15;78.17;94359.47;5052106;28;20201;-86
2023/11/29 04:29:44;;;;;;;10.60;8.80;;;;;;;2.13;78.23;94362.19;5051679;28;20577;-86
2023/11/29 04:32:11;;;;;;;11.63;8.87;;;;;;;2.14;78.57;94365.50;5051497;28;20251;-87
2023/11/29 04:34:37;;;;;;;10.63;9.10;;;;;;;2.18;78.66;94372.66;5051305;28;20204;-86
2023/11/29 04:37:04;;;;;;;10.90;8.90;;;;;;;2.22;78.35;94378.25;5050659;28;20226;-86
2023/11/29 04:39:30;;;;;;;12.67;9.40;;;;;;;2.24;78.23;94359.34;5051610;28;20229;-86
2023/11/29 04:41:58;;;;;;;9.70;8.30;;;;;;;2.21;78.17;94341.91;5052223;28;20715;-87
2023/11/29 04:44:24;;;;;;;10.13;9.03;;;;;;;2.18;78.16;94347.28;5051587;28;20213;-86
2023/11/29 04:46:51;;;;;;;10.50;9.00;;;;;;;2.16;78.18;94345.84;5050964;28;20656;-86
2023/11/29 04:49:17;;;;;;;10.00;8.87;;;;;;;2.11;78.24;94343.78;5042945;28;20227;-85
2023/11/29 04:51:44;;;;;;;9.77;8.70;;;;;;;2.02;78.21;94350.59;5047416;28;20209;-87
2023/11/29 04:54:12;;;;;;;11.53;9.27;;;;;;;1.97;78.47;94354.53;5051517;28;20193;-86
2023/11/29 04:56:38;;;;;;;9.77;8.43;;;;;;;2.02;79.00;94367.56;5050928;28;20201;-86
2023/11/29 04:59:06;;;;;;;10.40;8.97;;;;;;;2.08;78.78;94372.81;5050740;28;20228;-88
2023/11/29 05:01:33;;;;;;;11.70;9.10;;;;;;;2.04;78.25;94351.22;5050605;28;20209;-86
2023/11/29 05:03:59;;;;;;;10.23;8.17;;;;;;;2.07;78.48;94363.59;5050293;28;20204;-86
2023/11/29 05:06:26;;;;;;;9.93;8.93;;;;;;;2.04;78.40;94353.75;5050599;28;20216;-86
2023/11/29 05:08:52;;;;;;;9.03;7.70;;;;;;;2.06;78.71;94364.56;5043705;28;20354;-86
2023/11/29 05:11:19;;;;;;;9.83;8.30;;;;;;;2.10;78.56;94362.50;5046366;28;20228;-86
2023/11/29 05:13:45;;;;;;;10.07;8.53;;;;;;;2.07;77.97;94345.06;5050567;28;20225;-86
2023/11/29 05:16:13;;;;;;;10.20;8.60;;;;;;;2.03;77.86;94338.69;5050671;28;20201;-86
2023/11/29 05:18:39;;;;;;;10.23;8.47;;;;;;;2.03;77.79;94346.31;5050003;28;20202;-86
2023/11/29 05:21:06;;;;;;;10.03;8.20;;;;;;;1.95;78.13;94351.34;5050723;28;20253;-87
2023/11/29 05:23:33;;;;;;;9.47;7.80;;;;;;;2.01;78.11;94356.59;5049964;28;20696;-86
2023/11/29 05:25:59;;;;;;;10.07;8.23;;;;;;;2.04;77.64;94342.81;5045490;28;20201;-86
2023/11/29 05:28:27;;;;;;;9.13;7.70;;;;;;;2.02;77.17;94321.88;5050061;28;20284;-86
2023/11/29 05:30:53;;;;;;;9.80;7.80;;;;;;;1.99;76.14;94300.13;5052292;28;20208;-88
2023/11/29 05:33:25;;;;;;;8.80;7.80;;;;;;;1.95;75.86;94281.06;5051205;28;20205;-86
2023/11/29 05:35:53;;;;;;;9.37;7.73;;;;;;;1.99;75.73;94279.81;5051176;28;20251;-86
2023/11/29 05:38:23;;;;;;;8.97;7.57;;;;;;;1.92;75.91;94294.09;5052424;28;20201;-86
2023/11/29 05:40:49;;;;;;;9.03;7.73;;;;;;;1.95;76.35;94303.91;5050787;28;20232;-86
2023/11/29 05:43:16;;;;;;;8.63;7.47;;;;;;;1.98;76.31;94307.91;5050931;28;20212;-87
2023/11/29 05:45:42;;;;;;;8.83;7.17;;;;;;;1.97;76.38;94301.22;5042264;28;20202;-86
2023/11/29 05:48:10;;;;;;;9.37;7.57;;;;;;;1.97;75.47;94283.47;5041320;28;20205;-86
2023/11/29 05:50:41;;;;;;;9.10;7.40;;;;;;;1.93;75.44;94279.66;5031393;28;20309;-87
2023/11/29 05:53:07;;;;;;;9.63;8.10;;;;;;;1.87;75.43;94268.41;5030802;28;20240;-86
2023/11/29 05:55:34;;;;;;;8.83;7.67;;;;;;;1.82;75.41;94265.53;5049147;28;20198;-87
2023/11/29 05:58:04;;;;;;;9.03;7.77;;;;;;;1.82;75.78;94295.16;5048233;28;20251;-86
2023/11/29 06:00:30;;;;;;;8.43;7.13;;;;;;;1.80;76.04;94297.06;5050433;28;20225;-87
2023/11/29 06:02:58;;;;;;;8.73;7.47;;;;;;;1.79;75.59;94298.81;5050845;28;20202;-87
2023/11/29 06:05:27;;;;;;;8.77;7.53;;;;;;;1.80;76.07;94302.94;5050642;28;20579;-87
2023/11/29 06:07:55;;;;;;;9.53;8.20;;;;;;;1.85;76.01;94310.09;5051050;28;20201;-86
2023/11/29 06:10:22;;;;;;;9.07;7.80;;;;;;;1.86;75.84;94304.88;5050325;28;20256;-86
2023/11/29 06:12:48;;;;;;;9.47;7.93;;;;;;;1.88;75.90;94289.50;5048781;28;20206;-87
2023/11/29 06:15:15;;;;;;;9.03;7.80;;;;;;;1.88;75.85;94292.81;5051032;28;20296;-87
2023/11/29 06:17:42;;;;;;;9.97;8.17;;;;;;;1.83;76.55;94325.47;5050235;28;20204;-87
2023/11/29 06:20:11;;;;;;;9.77;7.90;;;;;;;1.79;76.55;94323.38;5049372;28;20226;-87
2023/11/29 06:22:38;;;;;;;9.67;7.60;;;;;;;1.74;76.32;94322.09;5049299;28;20220;-85
2023/11/29 06:25:07;;;;;;;9.47;8.23;;;;;;;1.78;76.49;94324.34;5049868;28;20197;-86
2023/11/29 06:27:34;;;;;;;13.67;9.87;;;;;;;1.76;77.61;94357.47;5050329;28;20201;-87
2023/11/29 06:30:00;;;;;;;14.43;9.93;;;;;;;1.72;78.60;94389.19;5048850;28;20224;-86
2023/11/29 06:32:27;;;;;;;12.87;10.00;;;;;;;1.73;77.96;94376.31;5049095;28;20213;-85
2023/11/29 06:34:55;;;;;;;11.83;9.50;;;;;;;1.77;77.36;94345.56;5049683;28;20197;-86
2023/11/29 06:37:22;;;;;;;10.83;9.50;;;;;;;1.61;80.59;94443.50;5049706;28;20639;-87
2023/11/29 06:39:48;;;;;;;20.23;14.03;;;;;;;1.60;81.77;94492.63;5045434;28;20224;-87
2023/11/29 06:42:16;;;;;;;17.37;12.87;;;;;;;1.54;81.52;94478.00;5044998;28;20217;-87
2023/11/29 06:44:43;;;;;;;14.23;11.60;;;;;;;1.56;80.05;94435.53;5040958;28;20201;-87
2023/11/29 06:47:09;;;;;;;11.17;9.37;;;;;;;1.60;79.48;94415.75;5049154;28;20280;-86
2023/11/29 06:49:36;;;;;;;10.50;9.10;;;;;;;1.64;78.99;94402.63;5049535;28;20232;-86
2023/11/29 06:52:03;;;;;;;11.87;9.20;;;;;;;1.70;78.56;94393.63;5050118;28;20668;-87
2023/11/29 06:54:29;;;;;;;10.80;8.37;;;;;;;1.75;78.26;94388.84;5048809;28;20243;-87
2023/11/29 06:56:56;;;;;;;11.33;8.90;;;;;;;1.76;78.31;94389.66;5050014;28;20205;-86
2023/11/29 06:59:24;;;;;;;12.03;8.97;;;;;;;1.70;77.88;94386.78;5050139;28;20221;-87
2023/11/29 07:01:50;;;;;;;10.53;8.27;;;;;;;1.69;78.25;94392.81;5040050;28;20225;-87
2023/11/29 07:04:17;;;;;;;10.17;8.70;;;;;;;1.76;78.15;94402.34;5030325;28;20210;-86
2023/11/29 07:06:43;;;;;;;10.93;9.00;;;;;;;1.77;78.13;94399.66;5049429;28;20221;-86
2023/11/29 07:09:13;;;;;;;9.93;8.57;;;;;;;1.83;77.97;94404.13;5049205;28;20292;-86
2023/11/29 07:11:40;;;;;;;12.77;10.00;;;;;;;1.82;78.61;94407.59;5050887;28;20197;-86
2023/11/29 07:14:06;;;;;;;17.63;14.03;;;;;;;1.85;78.55;94419.19;5050447;28;20582;-86
2023/11/29 07:16:36;;;;;;;13.53;9.63;;;;;;;1.86;78.36;94410.66;5048492;28;20578;-86
2023/11/29 07:19:03;;;;;;;10.63;8.63;;;;;;;1.98;81.89;94528.69;5049725;28;20233;-86
2023/11/29 07:21:29;;;;;;;12.77;9.03;;;;;;;2.07;78.86;94427.06;5050149;28;20217;-87
2023/11/29 07:23:56;;;;;;;11.40;9.33;;;;;;;2.07;77.70;94390.75;5051430;28;20202;-86
2023/11/29 07:26:22;;;;;;;14.17;9.13;;;;;;;2.07;77.74;94372.97;5052657;28;20201;-87
2023/11/29 07:28:49;;;;;;;13.47;8.40;;;;;;;2.02;77.59;94373.41;5054904;28;20222;-87
2023/11/29 07:31:15;;;;;;;15.67;9.90;;;;;;;2.01;77.61;94381.19;5054250;28;20194;-88
2023/11/29 07:33:44;;;;;;;10.80;8.77;;;;;;;2.02;77.99;94386.13;5056309;28;20229;-88
2023/11/29 07:36:12;;;;;;;13.07;8.87;;;;;;;2.01;77.63;94382.00;5057843;28;20715;-87
2023/11/29 07:38:38;;;;;;;10.57;8.63;;;;;;;1.95;76.76;94364.03;5049784;28;20194;-87
2023/11/29 07:41:05;;;;;;;9.80;8.00;;;;;;;1.94;76.89;94344.69;5043702;28;20213;-87
2023/11/29 07:43:32;;;;;;;9.97;8.17;;;;;;;1.96;76.63;94345.31;5037335;28;20202;-87
2023/11/29 07:45:59;;;;;;;10.63;8.00;;;;;;;1.96;76.52;94341.03;5036129;28;20618;-87
2023/11/29 07:48:25;;;;;;;9.60;8.20;;;;;;;1.95;76.01;94334.38;5035940;28;20198;-87
2023/11/29 07:50:54;;;;;;;15.73;12.83;;;;;;;2.03;76.03;94326.00;5052613;28;20209;-88
2023/11/29 07:53:21;;;;;;;14.83;12.27;;;;;;;2.22;76.10;94337.63;5053791;28;20193;-87
2023/11/29 07:55:47;;;;;;;11.40;8.63;;;;;;;2.36;75.53;94332.72;5054550;28;20728;-87
2023/11/29 07:58:14;;;;;;;9.53;7.63;;;;;;;2.49;74.72;94294.16;5053645;28;20205;-87
2023/11/29 08:00:40;;;;;;;10.43;7.57;;;;;;;2.67;74.04;94274.47;5053467;28;20233;-87
2023/11/29 08:03:07;;;;;;;9.30;7.50;;;;;;;2.71;73.40;94249.50;5053361;28;20580;-87
2023/11/29 08:05:35;;;;;;;9.33;6.80;;;;;;;2.56;72.99;94228.25;5052276;28;20204;-88
2023/11/29 08:08:04;;;;;;;6.83;6.03;;;;;;;2.51;73.56;94253.34;5053086;28;20204;-86
2023/11/29 08:10:32;;;;;;;7.30;6.27;;;;;;;2.51;73.91;94261.75;5067302;28;20233;-87
2023/11/29 08:12:59;;;;;;;6.60;5.90;;;;;;;2.49;73.87;94270.50;5057029;28;20228;-87
2023/11/29 08:15:26;;;;;;;7.17;5.70;;;;;;;2.51;73.33;94260.94;5056264;28;20251;-87
2023/11/29 08:17:52;;;;;;;7.03;5.97;;;;;;;2.51;73.49;94260.94;5056282;28;20216;-87
2023/11/29 08:20:19;;;;;;;6.10;5.50;;;;;;;2.48;73.44;94263.84;5055193;28;20221;-88
2023/11/29 08:22:45;;;;;;;6.17;5.40;;;;;;;2.39;74.00;94286.69;5042296;28;20206;-87
2023/11/29 08:25:20;;;;;;;6.73;5.87;;;;;;;2.32;73.88;94275.56;5053005;28;20229;-87
2023/11/29 08:27:47;;;;;;;5.97;4.93;;;;;;;2.22;73.70;94259.69;5053161;28;20659;-87
2023/11/29 08:30:14;;;;;;;6.10;5.20;;;;;;;2.26;73.75;94266.06;5053853;28;20723;-86
2023/11/29 08:32:41;;;;;;;6.00;4.80;;;;;;;2.30;73.76;94274.16;5050938;28;20198;-88
2023/11/29 08:35:09;;;;;;;7.00;4.50;;;;;;;2.26;73.51;94257.66;5047719;28;20210;-87
2023/11/29 08:37:36;;;;;;;6.97;4.60;;;;;;;2.28;73.29;94248.91;5041167;28;20361;-86
2023/11/29 08:40:03;;;;;;;4.57;4.17;;;;;;;2.25;73.16;94256.06;5051865;28;20589;-87
2023/11/29 08:42:31;;;;;;;5.87;4.47;;;;;;;2.30;73.80;94271.63;5052717;28;20222;-86
2023/11/29 08:44:58;;;;;;;4.83;4.17;;;;;;;2.34;73.96;94285.56;5052102;28;20692;-86
2023/11/29 08:47:25;;;;;;;4.50;4.10;;;;;;;2.42;73.62;94283.84;5051589;28;20209;-85
2023/11/29 08:50:09;;;;;;;5.07;4.30;;;;;;;2.42;73.62;94281.28;5052417;28;20228;-90
2023/11/29 08:52:35;;;;;;;5.30;4.50;;;;;;;2.41;73.50;94274.63;5051951;28;20197;-86
2023/11/29 08:55:05;;;;;;;4.47;4.07;;;;;;;2.34;73.34;94273.66;5050021;28;20207;-86
2023/11/29 08:57:35;;;;;;;4.27;3.87;;;;;;;2.22;73.28;94267.31;5052306;28;20800;-87
2023/11/29 09:00:03;;;;;;;4.60;4.20;;;;;;;2.24;73.92;94295.09;5053056;28;20247;-87
2023/11/29 09:02:33;;;;;;;4.70;4.20;;;;;;;2.29;73.95;94305.56;5052124;28;20257;-87
2023/11/29 09:05:02;;;;;;;4.80;4.30;;;;;;;2.36;73.82;94309.84;5051985;28;20205;-87
2023/11/29 09:07:29;;;;;;;4.20;3.80;;;;;;;2.42;74.19;94313.50;5052314;28;20232;-87
2023/11/29 09:09:58;;;;;;;4.43;4.00;;;;;;;2.32;74.25;94303.50;5050892;28;20237;-86
2023/11/29 09:12:25;;;;;;;6.67;3.97;;;;;;;2.36;74.48;94316.69;5043896;28;20210;-86
2023/11/29 09:14:55;;;;;;;4.80;4.23;;;;;;;2.43;74.42;94332.88;5031899;28;20225;-87
2023/11/29 09:17:22;;;;;;;4.67;4.13;;;;;;;2.37;74.64;94330.97;5031627;28;20209;-86
2023/11/29 09:19:48;;;;;;;5.13;4.63;;;;;;;2.45;74.91;94336.06;5031789;28;20253;-86
2023/11/29 09:22:15;;;;;;;6.17;5.43;;;;;;;2.52;74.80;94348.91;5038806;28;20225;-86
2023/11/29 09:24:41;;;;;;;7.27;5.17;;;;;;;2.49;74.95;94334.81;5051059;28;20296;-86
2023/11/29 09:27:08;;;;;;;5.60;4.87;;;;;;;2.48;74.76;94329.88;5049118;28;20285;-86
2023/11/29 09:29:34;;;;;;;4.73;4.30;;;;;;;2.45;74.81;94337.81;5042873;28;20726;-86
2023/11/29 09:32:04;;;;;;;5.37;4.57;;;;;;;2.50;75.06;94343.22;5032754;28;20209;-86
2023/11/29 09:34:31;;;;;;;5.50;4.40;;;;;;;2.55;74.96;94338.44;5052399;28;20204;-86
2023/11/29 09:37:00;;;;;;;4.37;3.97;;;;;;;2.62;74.92;94345.28;5052998;28;20211;-86
2023/11/29 09:39:28;;;;;;;5.27;4.70;;;;;;;2.60;74.84;94328.59;5051316;28;20259;-86
2023/11/29 09:41:55;;;;;;;5.60;4.30;;;;;;;2.58;74.68;94326.22;5050674;28;20256;-87
2023/11/29 09:44:22;;;;;;;5.17;4.60;;;;;;;2.62;74.75;94330.03;5050657;28;20241;-86
2023/11/29 09:46:48;;;;;;;4.70;4.20;;;;;;;2.60;75.26;94337.03;5051534;28;20208;-88
2023/11/29 09:49:16;;;;;;;7.87;4.63;;;;;;;2.64;75.32;94334.97;5051669;28;20225;-87
2023/11/29 09:51:43;;;;;;;5.13;4.27;;;;;;;2.67;74.96;94343.06;5051350;28;20190;-87
2023/11/29 09:54:10;;;;;;;5.43;4.60;;;;;;;2.77;75.10;94341.13;5050421;28;20193;-88
2023/11/29 09:56:40;;;;;;;4.10;3.70;;;;;;;2.84;74.71;94320.19;5051144;28;20212;-87
2023/11/29 09:59:07;;;;;;;4.80;4.30;;;;;;;2.82;74.02;94289.84;5047242;28;20217;-86
2023/11/29 10:01:36;;;;;;;4.80;4.23;;;;;;;2.84;73.84;94277.78;5050760;28;20226;-86
2023/11/29 10:04:06;;;;;;;4.77;3.87;;;;;;;2.72;74.10;94277.28;5051208;28;20721;-86
2023/11/29 10:06:33;;;;;;;5.37;4.37;;;;;;;2.75;73.90;94274.44;5051827;28;20204;-88
2023/11/29 10:09:04;;;;;;;4.60;4.20;;;;;;;2.81;73.86;94275.53;5051202;28;20244;-87
2023/11/29 10:11:30;;;;;;;4.83;4.23;;;;;;;2.84;73.88;94261.72;5051780;28;20296;-87
2023/11/29 10:13:58;;;;;;;5.07;4.57;;;;;;;3.00;73.55;94259.16;5051588;28;20205;-86
2023/11/29 10:16:24;;;;;;;4.27;3.87;;;;;;;3.06;73.59;94256.75;5052385;28;20205;-87
2023/11/29 10:18:51;;;;;;;4.33;3.93;;;;;;;3.27;83.99;94556.31;5052184;28;20232;-87
2023/11/29 10:21:19;;;;;;;4.73;3.90;;;;;;;3.36;75.16;94267.94;5051882;28;20351;-87
2023/11/29 10:23:47;;;;;;;6.37;4.20;;;;;;;3.50;73.70;94209.66;5035051;28;20275;-87
2023/11/29 10:26:14;;;;;;;4.43;3.67;;;;;;;3.39;72.23;94147.25;5043196;28;20232;-86
2023/11/29 10:28:41;;;;;;;4.27;3.87;;;;;;;3.28;72.19;94129.81;5048675;28;20233;-87
2023/11/29 10:31:09;;;;;;;4.47;4.07;;;;;;;3.25;72.06;94136.06;5037228;28;20205;-87
2023/11/29 10:33:37;;;;;;;9.70;7.57;;;;;;;3.37;72.11;94139.00;5033033;28;20202;-86
2023/11/29 10:36:04;;;;;;;8.57;7.07;;;;;;;3.68;72.06;94156.75;5031586;28;20209;-87
2023/11/29 10:38:41;;;;;;;4.73;4.27;;;;;;;3.73;70.67;94093.44;5031740;28;20202;-87
2023/11/29 10:41:11;;;;;;;4.47;4.03;;;;;;;3.75;70.76;94077.03;5031664;28;20404;-86
2023/11/29 10:43:39;;;;;;;4.43;3.77;;;;;;;3.79;70.45;94063.00;5031008;28;20256;-88
2023/11/29 10:46:12;;;;;;;4.70;4.20;;;;;;;3.81;70.12;94053.44;5031551;28;20202;-87
2023/11/29 10:48:44;;;;;;;4.33;3.93;;;;;;;4.22;70.15;94055.59;5040774;28;20216;-86
2023/11/29 10:51:12;;;;;;;4.27;3.87;;;;;;;4.51;69.10;94011.47;5050844;28;20772;-87
2023/11/29 10:53:38;;;;;;;4.20;3.80;;;;;;;4.85;68.27;93988.72;5050782;28;20198;-87
2023/11/29 10:56:06;;;;;;;4.23;3.83;;;;;;;4.86;66.64;93903.59;5049723;28;20672;-86
2023/11/29 10:58:45;;;;;;;3.83;3.47;;;;;;;4.64;66.54;93876.53;5049371;28;20200;-88
2023/11/29 11:01:11;;;;;;;3.97;3.57;;;;;;;4.39;67.77;93924.53;5049622;28;20200;-87
2023/11/29 11:03:42;;;;;;;4.10;3.73;;;;;;;4.44;68.17;93959.63;5046322;28;20205;-87
2023/11/29 11:06:38;;;;;;;4.43;4.03;;;;;;;4.61;67.99;93967.88;5049156;28;20217;-87
2023/11/29 11:09:26;;;;;;;4.30;3.90;;;;;;;4.80;67.87;93959.66;5048686;28;20226;-88
2023/11/29 11:12:02;;;;;;;6.77;3.77;;;;;;;5.09;75.24;94265.59;5049635;28;20259;-89
2023/11/29 11:14:37;;;;;;;5.10;4.60;;;;;;;5.21;70.90;94087.34;5049569;28;20204;-88
2023/11/29 11:17:06;;;;;;;4.03;3.63;;;;;;;4.96;67.70;93910.97;5050568;28;20691;-87
2023/11/29 11:19:38;;;;;;;3.50;3.20;;;;;;;4.90;67.76;93890.50;5045125;28;20654;-88
2023/11/29 11:22:10;;;;;;;3.70;3.40;;;;;;;4.75;67.86;93899.00;5049984;28;20710;-88
2023/11/29 11:25:00;;;;;;;3.77;3.47;;;;;;;4.62;68.24;93901.41;5048367;28;20273;-88
2023/11/29 11:27:34;;;;;;;3.47;3.17;;;;;;;4.40;68.40;93913.38;5029731;28;20277;-88
2023/11/29 11:30:22;;;;;;;3.93;3.47;;;;;;;4.25;68.16;93916.88;5030275;28;20699;-88
2023/11/29 11:32:52;;;;;;;3.70;3.40;;;;;;;4.21;68.58;93924.13;5029961;28;20243;-88
2023/11/29 11:35:35;;;;;;;3.63;3.33;;;;;;;4.18;68.71;93933.88;5036637;28;20575;-87
2023/11/29 11:38:05;;;;;;;3.73;3.43;;;;;;;4.18;68.73;93939.75;5040759;28;20202;-89
2023/11/29 11:40:33;;;;;;;3.40;3.10;;;;;;;4.23;69.13;93950.22;5049435;28;20237;-88
2023/11/29 11:43:03;;;;;;;3.57;3.10;;;;;;;4.19;68.12;93912.53;5049970;28;20229;-88